createdAt,value
2019-05-01T00:00:23.467Z,3.77
2019-05-01T00:02:50.253Z,3.97
2019-05-01T00:05:17.305Z,3.50
2019-05-01T00:07:44.025Z,4.20
2019-05-01T00:10:13.029Z,3.97
2019-05-01T00:12:39.872Z,4.10
2019-05-01T00:15:07.593Z,4.17
2019-05-01T00:17:34.493Z,4.87
2019-05-01T00:20:01.556Z,5.90
2019-05-01T00:22:28.276Z,4.87
2019-05-01T00:24:55.074Z,4.20
2019-05-01T00:27:21.812Z,3.60
2019-05-01T00:29:48.685Z,4.57
2019-05-01T00:32:15.421Z,4.97
2019-05-01T00:34:42.137Z,4.73
2019-05-01T00:37:08.916Z,4.30
2019-05-01T00:39:35.642Z,3.97
2019-05-01T00:42:02.541Z,3.70
2019-05-01T00:44:29.315Z,3.50
2019-05-01T00:46:56.037Z,4.27
2019-05-01T00:49:22.818Z,3.83
2019-05-01T00:51:49.583Z,4.20
2019-05-01T00:54:16.295Z,4.90
2019-05-01T00:56:43.194Z,5.13
2019-05-01T00:59:10.060Z,4.50
2019-05-01T01:01:36.784Z,4.07
2019-05-01T01:04:03.624Z,4.00
2019-05-01T01:06:30.478Z,4.23
2019-05-01T01:08:57.230Z,4.20
2019-05-01T01:11:24.000Z,4.70
2019-05-01T01:13:50.780Z,3.70
2019-05-01T01:16:17.578Z,3.60
2019-05-01T01:18:44.525Z,3.93
2019-05-01T01:21:11.257Z,5.10
2019-05-01T01:23:38.529Z,4.50
2019-05-01T01:26:05.271Z,4.10
2019-05-01T01:28:32.013Z,4.97
2019-05-01T01:30:58.937Z,4.73
2019-05-01T01:33:25.772Z,4.80
2019-05-01T01:35:52.624Z,4.73
2019-05-01T01:38:19.366Z,3.93
2019-05-01T01:40:46.623Z,4.03
2019-05-01T01:43:13.723Z,4.13
2019-05-01T01:45:40.545Z,3.73
2019-05-01T01:48:07.412Z,3.93
2019-05-01T01:50:34.721Z,4.07
2019-05-01T01:53:01.758Z,4.43
2019-05-01T01:55:28.804Z,3.73
2019-05-01T01:57:56.259Z,3.67
2019-05-01T02:00:23.002Z,3.40
2019-05-01T02:02:49.893Z,3.70
2019-05-01T02:05:16.742Z,4.00
2019-05-01T02:07:43.821Z,3.80
2019-05-01T02:10:12.201Z,4.20
2019-05-01T02:12:40.220Z,3.40
2019-05-01T02:15:07.809Z,3.43
2019-05-01T02:17:34.661Z,3.40
2019-05-01T02:20:01.981Z,4.07
2019-05-01T02:22:28.789Z,4.10
2019-05-01T02:24:55.541Z,3.63
2019-05-01T02:27:22.951Z,4.27
2019-05-01T02:29:50.350Z,3.57
2019-05-01T02:32:37.206Z,3.73
2019-05-01T02:35:06.718Z,3.60
2019-05-01T02:37:34.689Z,27.27
2019-05-01T02:40:06.255Z,4.93
2019-05-01T02:42:38.183Z,4.67
2019-05-01T02:45:04.980Z,5.03
2019-05-01T02:47:35.950Z,6.17
2019-05-01T02:50:07.652Z,4.20
2019-05-01T02:52:38.675Z,4.37
2019-05-01T02:55:08.641Z,4.50
2019-05-01T02:57:39.147Z,4.80
2019-05-01T03:00:06.702Z,4.73
2019-05-01T03:02:35.722Z,3.97
2019-05-01T03:05:03.008Z,3.93
2019-05-01T03:07:34.159Z,4.00
2019-05-01T03:10:03.410Z,4.00
2019-05-01T03:12:34.164Z,3.80
2019-05-01T03:15:03.969Z,3.63
2019-05-01T03:17:34.300Z,3.77
2019-05-01T03:20:01.970Z,4.70
2019-05-01T03:22:29.154Z,4.90
2019-05-01T03:24:56.143Z,5.27
2019-05-01T03:27:22.979Z,5.13
2019-05-01T03:29:49.827Z,5.80
2019-05-01T03:32:19.577Z,5.10
2019-05-01T03:34:51.868Z,4.50
2019-05-01T03:37:14.370Z,5.37
2019-05-01T03:39:41.300Z,5.63
2019-05-01T03:42:08.190Z,7.33
2019-05-01T03:44:35.050Z,7.60
2019-05-01T03:47:02.069Z,7.00
2019-05-01T03:49:28.971Z,6.60
2019-05-01T03:51:56.695Z,5.40
2019-05-01T03:54:23.739Z,5.27
2019-05-01T03:56:50.989Z,5.37
2019-05-01T03:59:18.525Z,5.87
2019-05-01T04:01:45.598Z,5.60
2019-05-01T04:04:12.959Z,5.60
2019-05-01T04:06:39.681Z,5.17
2019-05-01T04:09:07.032Z,4.57
2019-05-01T04:11:34.956Z,5.13
2019-05-01T04:14:03.361Z,4.60
2019-05-01T04:16:32.779Z,4.63
2019-05-01T04:19:00.102Z,5.37
2019-05-01T04:21:27.598Z,5.23
2019-05-01T04:23:56.060Z,5.13
2019-05-01T04:26:22.818Z,4.70
2019-05-01T04:28:49.747Z,5.50
2019-05-01T04:31:17.054Z,4.60
2019-05-01T04:33:44.820Z,5.23
2019-05-01T04:36:12.995Z,7.17
2019-05-01T04:38:39.808Z,7.77
2019-05-01T04:41:07.155Z,6.70
2019-05-01T04:43:34.084Z,6.33
2019-05-01T04:46:01.160Z,6.77
2019-05-01T04:48:27.942Z,8.20
2019-05-01T04:50:55.472Z,9.20
2019-05-01T04:53:24.408Z,9.73
2019-05-01T04:55:52.262Z,8.60
2019-05-01T04:58:19.401Z,5.87
2019-05-01T05:00:46.210Z,7.03
2019-05-01T05:03:13.189Z,7.73
2019-05-01T05:05:40.316Z,8.87
2019-05-01T05:08:07.133Z,8.90
2019-05-01T05:10:34.275Z,9.67
2019-05-01T05:13:01.170Z,9.67
2019-05-01T05:15:28.369Z,10.13
2019-05-01T05:17:55.231Z,10.47
2019-05-01T05:20:22.853Z,10.07
2019-05-01T05:22:49.894Z,10.20
2019-05-01T05:25:16.800Z,9.83
2019-05-01T05:27:44.555Z,8.73
2019-05-01T05:30:11.479Z,8.50
2019-05-01T05:32:41.881Z,7.43
2019-05-01T05:35:11.411Z,8.73
2019-05-01T05:37:40.189Z,9.80
2019-05-01T05:40:07.114Z,10.23
2019-05-01T05:42:34.151Z,13.50
2019-05-01T05:45:02.324Z,11.20
2019-05-01T05:47:29.973Z,9.77
2019-05-01T05:49:59.011Z,8.97
2019-05-01T05:52:28.912Z,10.23
2019-05-01T05:54:59.952Z,9.20
2019-05-01T05:57:36.751Z,11.27
2019-05-01T06:00:05.890Z,13.60
2019-05-01T06:02:35.277Z,14.37
2019-05-01T06:05:03.477Z,16.30
2019-05-01T06:07:34.557Z,26.33
2019-05-01T06:10:02.411Z,18.77
2019-05-01T06:12:30.422Z,16.47
2019-05-01T06:15:02.482Z,19.87
2019-05-01T06:17:31.081Z,21.37
2019-05-01T06:19:58.447Z,28.03
2019-05-01T06:22:25.824Z,30.53
2019-05-01T06:24:53.733Z,20.70
2019-05-01T06:27:21.128Z,14.97
2019-05-01T06:29:48.870Z,17.00
2019-05-01T06:32:15.942Z,17.10
2019-05-01T06:34:43.100Z,12.53
2019-05-01T06:37:10.213Z,12.13
2019-05-01T06:39:37.920Z,14.90
2019-05-01T06:42:05.251Z,21.20
2019-05-01T06:44:33.571Z,22.70
2019-05-01T06:47:03.310Z,18.33
2019-05-01T06:49:34.566Z,17.03
2019-05-01T06:52:02.792Z,14.07
2019-05-01T06:54:33.551Z,13.70
2019-05-01T06:57:02.994Z,16.77
2019-05-01T06:59:33.511Z,12.70
2019-05-01T07:02:00.632Z,11.97
2019-05-01T07:04:32.409Z,10.90
2019-05-01T07:07:06.851Z,10.30
2019-05-01T07:09:33.841Z,8.97
2019-05-01T07:12:03.242Z,8.20
2019-05-01T07:14:30.662Z,8.87
2019-05-01T07:16:57.940Z,7.27
2019-05-01T07:19:25.225Z,5.60
2019-05-01T07:21:52.480Z,5.30
2019-05-01T07:24:24.085Z,6.03
2019-05-01T07:26:50.850Z,4.90
2019-05-01T07:29:17.882Z,5.10
2019-05-01T07:31:44.786Z,5.07
2019-05-01T07:34:16.614Z,5.47
2019-05-01T07:36:40.263Z,5.30
2019-05-01T07:39:09.908Z,5.63
2019-05-01T07:41:37.704Z,5.60
2019-05-01T07:44:05.866Z,4.90
2019-05-01T07:46:33.296Z,4.97
2019-05-01T07:49:01.411Z,4.77
2019-05-01T07:51:28.413Z,4.57
2019-05-01T07:53:59.056Z,4.90
2019-05-01T07:56:28.022Z,4.73
2019-05-01T07:58:55.108Z,4.67
2019-05-01T08:01:23.403Z,4.27
2019-05-01T08:03:50.163Z,4.70
2019-05-01T08:06:21.438Z,4.37
2019-05-01T08:08:45.632Z,4.70
2019-05-01T08:11:12.384Z,4.07
2019-05-01T08:13:39.125Z,4.00
2019-05-01T08:16:07.006Z,3.43
2019-05-01T08:18:36.156Z,4.00
2019-05-01T08:21:03.334Z,3.97
2019-05-01T08:23:30.227Z,4.43
2019-05-01T08:25:56.981Z,4.00
2019-05-01T08:28:27.596Z,4.00
2019-05-01T08:30:53.066Z,4.10
2019-05-01T08:33:20.805Z,4.20
2019-05-01T08:35:47.561Z,4.33
2019-05-01T08:38:14.438Z,3.73
2019-05-01T08:40:41.196Z,3.80
2019-05-01T08:43:07.930Z,4.07
2019-05-01T08:45:35.830Z,4.00
2019-05-01T08:48:03.650Z,4.63
2019-05-01T08:50:30.472Z,3.90
2019-05-01T08:52:57.253Z,3.87
2019-05-01T08:55:23.999Z,4.10
2019-05-01T08:57:50.727Z,3.57
2019-05-01T09:00:18.582Z,3.60
2019-05-01T09:02:45.326Z,3.80
2019-05-01T09:05:27.533Z,3.23
2019-05-01T09:07:40.932Z,3.90
2019-05-01T09:10:09.213Z,4.40
2019-05-01T09:12:36.250Z,4.20
2019-05-01T09:15:12.464Z,3.90
2019-05-01T09:17:35.825Z,3.50
2019-05-01T09:20:03.439Z,3.30
2019-05-01T09:22:30.196Z,3.43
2019-05-01T09:25:00.054Z,3.20
2019-05-01T09:27:29.482Z,3.40
2019-05-01T09:29:55.564Z,3.80
2019-05-01T09:32:22.418Z,3.23
2019-05-01T09:34:49.309Z,3.40
2019-05-01T09:37:16.070Z,2.97
2019-05-01T09:39:42.793Z,3.00
2019-05-01T09:42:09.619Z,3.00
2019-05-01T09:44:36.439Z,3.37
2019-05-01T09:47:03.372Z,3.50
2019-05-01T09:49:30.156Z,3.23
2019-05-01T09:51:56.874Z,3.20
2019-05-01T09:54:23.599Z,3.13
2019-05-01T09:56:50.495Z,2.90
2019-05-01T09:59:18.945Z,2.90
2019-05-01T10:01:45.777Z,3.10
2019-05-01T10:04:12.587Z,3.10
2019-05-01T10:06:39.312Z,3.00
2019-05-01T10:09:07.290Z,2.90
2019-05-01T10:11:36.007Z,3.10
2019-05-01T10:14:05.130Z,3.07
2019-05-01T10:16:31.863Z,2.90
2019-05-01T10:18:58.666Z,3.03
2019-05-01T10:21:27.290Z,2.83
2019-05-01T10:23:53.924Z,2.60
2019-05-01T10:26:23.948Z,3.23
2019-05-01T10:28:49.986Z,2.60
2019-05-01T10:31:17.851Z,3.03
2019-05-01T10:33:44.612Z,3.30
2019-05-01T10:36:17.740Z,2.93
2019-05-01T10:38:44.791Z,2.80
2019-05-01T10:41:09.151Z,3.20
2019-05-01T10:43:37.145Z,2.80
2019-05-01T10:46:03.916Z,2.77
2019-05-01T10:48:30.767Z,2.97
2019-05-01T10:50:57.528Z,2.97
2019-05-01T10:53:24.456Z,2.80
2019-05-01T10:55:51.228Z,2.50
2019-05-01T10:58:20.152Z,2.87
2019-05-01T11:00:46.664Z,2.70
2019-05-01T11:03:13.393Z,2.70
2019-05-01T11:05:40.148Z,2.70
2019-05-01T11:08:06.882Z,2.73
2019-05-01T11:10:33.636Z,2.67
2019-05-01T11:13:00.475Z,2.70
2019-05-01T11:15:27.275Z,2.40
2019-05-01T11:17:54.014Z,2.40
2019-05-01T11:20:20.765Z,2.57
2019-05-01T11:22:47.559Z,2.27
2019-05-01T11:25:14.598Z,2.50
2019-05-01T11:27:41.398Z,2.40
2019-05-01T11:30:08.625Z,2.30
2019-05-01T11:32:35.390Z,2.50
2019-05-01T11:35:04.560Z,2.13
2019-05-01T11:37:31.305Z,2.20
2019-05-01T11:39:58.018Z,2.00
2019-05-01T11:42:24.865Z,2.60
2019-05-01T11:44:51.650Z,2.63
2019-05-01T11:47:18.463Z,2.00
2019-05-01T11:49:45.287Z,2.40
2019-05-01T11:52:12.035Z,2.30
2019-05-01T11:54:38.752Z,2.30
2019-05-01T11:57:05.570Z,2.10
2019-05-01T11:59:32.865Z,2.37
2019-05-01T12:02:02.390Z,2.10
2019-05-01T12:04:28.602Z,2.20
2019-05-01T12:06:55.331Z,2.27
2019-05-01T12:09:22.079Z,2.40
2019-05-01T12:11:48.900Z,2.20
2019-05-01T12:14:15.628Z,2.33
2019-05-01T12:16:42.381Z,2.40
2019-05-01T12:19:09.148Z,2.00
2019-05-01T12:21:35.888Z,2.70
2019-05-01T12:24:02.848Z,2.30
2019-05-01T12:26:29.611Z,2.17
2019-05-01T12:28:56.367Z,2.40
2019-05-01T12:31:23.173Z,2.30
2019-05-01T12:33:49.903Z,2.20
2019-05-01T12:36:16.641Z,2.23
2019-05-01T12:38:43.471Z,2.23
2019-05-01T12:41:10.187Z,1.90
2019-05-01T12:43:37.129Z,2.20
2019-05-01T12:46:03.874Z,2.23
2019-05-01T12:48:30.595Z,2.27
2019-05-01T12:50:57.485Z,2.30
2019-05-01T12:53:24.241Z,2.00
2019-05-01T12:55:50.989Z,2.20
2019-05-01T12:58:17.772Z,2.53
2019-05-01T13:00:47.337Z,2.17
2019-05-01T13:03:14.094Z,1.90
2019-05-01T13:05:40.960Z,2.53
2019-05-01T13:08:07.695Z,2.53
2019-05-01T13:10:34.548Z,2.10
2019-05-01T13:13:01.329Z,2.30
2019-05-01T13:15:28.074Z,2.03
2019-05-01T13:17:54.857Z,2.57
2019-05-01T13:20:21.606Z,2.10
2019-05-01T13:22:48.393Z,2.57
2019-05-01T13:25:15.169Z,2.20
2019-05-01T13:27:41.898Z,2.60
2019-05-01T13:30:15.163Z,2.20
2019-05-01T13:32:41.884Z,2.30
2019-05-01T13:35:08.947Z,2.20
2019-05-01T13:37:35.805Z,2.40
2019-05-01T13:40:07.552Z,2.30
2019-05-01T13:42:34.664Z,2.30
2019-05-01T13:45:01.470Z,2.73
2019-05-01T13:47:28.211Z,2.23
2019-05-01T13:49:55.024Z,2.20
2019-05-01T13:52:21.844Z,2.03
2019-05-01T13:54:48.601Z,2.40
2019-05-01T13:57:15.381Z,2.17
2019-05-01T13:59:42.147Z,2.10
2019-05-01T14:02:08.866Z,2.23
2019-05-01T14:04:35.636Z,2.50
2019-05-01T14:07:15.565Z,2.03
2019-05-01T14:09:31.076Z,2.00
2019-05-01T14:11:57.819Z,1.93
2019-05-01T14:14:24.579Z,2.03
2019-05-01T14:16:51.374Z,2.00
2019-05-01T14:19:18.157Z,2.10
2019-05-01T14:21:44.913Z,2.30
2019-05-01T14:24:20.895Z,2.13
2019-05-01T14:26:47.666Z,2.30
2019-05-01T14:29:14.402Z,2.30
2019-05-01T14:31:41.163Z,2.30
2019-05-01T14:34:07.940Z,2.27
2019-05-01T14:36:34.664Z,2.20
2019-05-01T14:39:01.403Z,2.20
2019-05-01T14:41:28.251Z,2.10
2019-05-01T14:43:54.993Z,2.27
2019-05-01T14:46:21.794Z,1.90
2019-05-01T14:48:48.652Z,2.30
2019-05-01T14:51:16.247Z,2.10
2019-05-01T14:53:43.075Z,1.97
2019-05-01T14:56:09.938Z,2.03
2019-05-01T14:58:36.684Z,1.93
2019-05-01T15:01:03.563Z,2.40
2019-05-01T15:03:36.754Z,1.93
2019-05-01T15:06:09.533Z,1.40
2019-05-01T15:08:46.054Z,1.90
2019-05-01T15:11:19.551Z,1.90
2019-05-01T15:14:00.438Z,1.70
2019-05-01T15:16:32.946Z,2.00
2019-05-01T15:19:02.019Z,1.70
2019-05-01T15:21:28.738Z,1.93
2019-05-01T15:23:57.235Z,1.80
2019-05-01T15:26:25.269Z,2.00
2019-05-01T15:28:52.025Z,1.83
2019-05-01T15:31:18.789Z,2.00
2019-05-01T15:33:45.870Z,1.53
2019-05-01T15:36:12.551Z,1.87
2019-05-01T15:38:39.452Z,1.60
2019-05-01T15:41:06.212Z,1.80
2019-05-01T15:43:32.956Z,4.40
2019-05-01T15:45:59.801Z,1.50
2019-05-01T15:48:26.516Z,1.43
2019-05-01T15:50:53.262Z,1.70
2019-05-01T15:53:20.149Z,1.13
2019-05-01T15:55:46.877Z,1.00
2019-05-01T15:58:13.588Z,1.07
2019-05-01T16:00:40.663Z,1.20
2019-05-01T16:03:07.432Z,1.07
2019-05-01T16:05:34.166Z,0.93
2019-05-01T16:08:09.571Z,1.10
2019-05-01T16:10:29.558Z,1.57
2019-05-01T16:12:56.290Z,0.83
2019-05-01T16:15:23.149Z,0.90
2019-05-01T16:17:49.883Z,1.20
2019-05-01T16:20:17.128Z,0.87
2019-05-01T16:22:44.146Z,0.93
2019-05-01T16:25:11.318Z,1.13
2019-05-01T16:27:38.221Z,1.30
2019-05-01T16:30:06.079Z,1.60
2019-05-01T16:32:32.834Z,0.90
2019-05-01T16:34:59.623Z,1.30
2019-05-01T16:37:26.638Z,1.30
2019-05-01T16:39:53.391Z,0.97
2019-05-01T16:42:20.379Z,1.03
2019-05-01T16:44:47.112Z,1.93
2019-05-01T16:47:13.936Z,1.23
2019-05-01T16:49:40.873Z,1.77
2019-05-01T16:52:07.733Z,2.70
2019-05-01T16:54:35.224Z,1.30
2019-05-01T16:57:02.726Z,1.50
2019-05-01T16:59:33.189Z,1.40
2019-05-01T17:02:00.403Z,1.60
2019-05-01T17:04:27.134Z,1.70
2019-05-01T17:06:53.946Z,2.17
2019-05-01T17:09:20.769Z,1.70
2019-05-01T17:11:47.467Z,1.80
2019-05-01T17:14:14.433Z,1.60
2019-05-01T17:16:41.138Z,1.90
2019-05-01T17:19:09.233Z,6.83
2019-05-01T17:21:36.020Z,2.70
2019-05-01T17:24:05.298Z,1.53
2019-05-01T17:26:32.062Z,1.30
2019-05-01T17:28:58.862Z,1.33
2019-05-01T17:31:25.568Z,1.40
2019-05-01T17:33:55.485Z,2.77
2019-05-01T17:36:20.923Z,1.40
2019-05-01T17:38:49.609Z,1.20
2019-05-01T17:41:16.585Z,1.00
2019-05-01T17:43:44.686Z,1.47
2019-05-01T17:46:12.088Z,1.33
2019-05-01T17:48:38.991Z,1.50
2019-05-01T17:51:05.749Z,1.40
2019-05-01T17:53:32.641Z,1.43
2019-05-01T17:55:59.394Z,1.40
2019-05-01T17:58:26.101Z,3.40
2019-05-01T18:00:52.966Z,2.07
2019-05-01T18:03:19.689Z,1.70
2019-05-01T18:05:46.417Z,1.30
2019-05-01T18:08:13.168Z,2.37
2019-05-01T18:10:39.916Z,4.63
2019-05-01T18:13:06.800Z,3.33
2019-05-01T18:15:33.525Z,1.77
2019-05-01T18:18:00.542Z,1.27
2019-05-01T18:20:27.505Z,1.70
2019-05-01T18:22:54.259Z,2.10
2019-05-01T18:25:20.999Z,2.30
2019-05-01T18:27:49.920Z,1.50
2019-05-01T18:30:20.510Z,1.60
2019-05-01T18:32:47.586Z,1.50
2019-05-01T18:35:16.157Z,1.43
2019-05-01T18:37:43.154Z,1.70
2019-05-01T18:40:10.330Z,2.13
2019-05-01T18:42:37.210Z,1.87
2019-05-01T18:45:09.533Z,1.50
2019-05-01T18:47:35.842Z,1.60
2019-05-01T18:50:05.247Z,1.60
2019-05-01T18:52:32.392Z,1.30
2019-05-01T18:54:59.131Z,2.70
2019-05-01T18:57:25.952Z,1.40
2019-05-01T18:59:52.802Z,1.30
2019-05-01T19:02:20.478Z,1.43
2019-05-01T19:04:48.040Z,1.90
2019-05-01T19:07:14.871Z,2.00
2019-05-01T19:09:41.601Z,1.70
2019-05-01T19:12:08.365Z,4.10
2019-05-01T19:14:35.127Z,6.23
2019-05-01T19:17:01.852Z,5.80
2019-05-01T19:19:28.760Z,4.30
2019-05-01T19:21:55.440Z,2.93
2019-05-01T19:24:22.302Z,4.63
2019-05-01T19:26:49.574Z,2.93
2019-05-01T19:29:16.632Z,3.50
2019-05-01T19:31:43.891Z,3.20
2019-05-01T19:34:10.944Z,2.10
2019-05-01T19:36:40.388Z,2.40
2019-05-01T19:39:11.435Z,1.90
2019-05-01T19:41:36.056Z,1.70
2019-05-01T19:44:03.585Z,1.80
2019-05-01T19:46:30.836Z,1.73
2019-05-01T19:48:57.974Z,1.90
2019-05-01T19:51:26.044Z,1.87
2019-05-01T19:53:53.684Z,1.90
2019-05-01T19:56:21.440Z,1.50
2019-05-01T19:58:49.799Z,1.80
2019-05-01T20:01:17.030Z,1.70
2019-05-01T20:03:44.202Z,1.60
2019-05-01T20:06:11.356Z,1.60
2019-05-01T20:08:38.595Z,1.53
2019-05-01T20:11:05.830Z,1.50
2019-05-01T20:13:32.958Z,1.60
2019-05-01T20:16:00.183Z,1.67
2019-05-01T20:18:26.977Z,1.80
2019-05-01T20:20:54.136Z,1.50
2019-05-01T20:23:25.927Z,1.80
2019-05-01T20:25:50.957Z,1.97
2019-05-01T20:28:20.097Z,1.57
2019-05-01T20:30:49.537Z,1.67
2019-05-01T20:33:15.958Z,1.60
2019-05-01T20:35:42.680Z,1.63
2019-05-01T20:38:09.573Z,1.70
2019-05-01T20:40:36.291Z,1.67
2019-05-01T20:43:06.013Z,2.40
2019-05-01T20:45:32.331Z,2.10
2019-05-01T20:47:59.064Z,1.80
2019-05-01T20:50:25.885Z,2.13
2019-05-01T20:52:52.816Z,1.77
2019-05-01T20:55:19.516Z,2.13
2019-05-01T20:57:46.246Z,2.10
2019-05-01T21:00:16.479Z,2.53
2019-05-01T21:02:43.122Z,2.10
2019-05-01T21:05:10.624Z,1.97
2019-05-01T21:07:37.499Z,2.00
2019-05-01T21:10:05.627Z,1.93
2019-05-01T21:12:32.374Z,1.90
2019-05-01T21:14:59.234Z,2.00
2019-05-01T21:17:25.963Z,1.83
2019-05-01T21:19:54.485Z,2.43
2019-05-01T21:22:23.304Z,2.23
2019-05-01T21:24:49.785Z,2.13
2019-05-01T21:27:16.680Z,1.97
2019-05-01T21:29:44.494Z,2.33
2019-05-01T21:32:13.469Z,2.20
2019-05-01T21:34:40.012Z,2.30
2019-05-01T21:37:06.730Z,2.20
2019-05-01T21:39:33.546Z,2.00
2019-05-01T21:42:04.745Z,2.00
2019-05-01T21:44:28.969Z,2.23
2019-05-01T21:46:55.706Z,2.60
2019-05-01T21:49:22.920Z,2.70
2019-05-01T21:51:49.841Z,2.47
2019-05-01T21:54:20.633Z,2.93
2019-05-01T21:56:45.243Z,2.80
2019-05-01T21:59:12.137Z,2.60
2019-05-01T22:01:39.039Z,2.37
2019-05-01T22:04:05.781Z,2.00
2019-05-01T22:06:32.619Z,2.10
2019-05-01T22:08:59.396Z,2.20
2019-05-01T22:11:26.240Z,1.90
2019-05-01T22:13:55.079Z,2.10
2019-05-01T22:16:22.390Z,2.20
2019-05-01T22:18:50.399Z,2.80
2019-05-01T22:21:17.277Z,2.30
2019-05-01T22:23:44.023Z,2.00
2019-05-01T22:26:10.866Z,1.90
2019-05-01T22:28:37.642Z,1.90
2019-05-01T22:31:04.408Z,2.10
2019-05-01T22:33:31.123Z,2.20
2019-05-01T22:35:57.885Z,1.93
2019-05-01T22:38:24.621Z,1.90
2019-05-01T22:41:04.777Z,2.00
2019-05-01T22:43:19.934Z,2.10
2019-05-01T22:45:46.691Z,2.03
2019-05-01T22:48:13.564Z,1.90
2019-05-01T22:50:40.333Z,1.80
2019-05-01T22:53:08.037Z,1.80
2019-05-01T22:55:35.765Z,2.10
2019-05-01T22:58:02.784Z,2.03
2019-05-01T23:00:30.001Z,1.90
2019-05-01T23:03:00.099Z,2.10
2019-05-01T23:05:27.907Z,2.23
2019-05-01T23:07:56.903Z,2.20
2019-05-01T23:10:22.601Z,1.93
2019-05-01T23:12:49.343Z,2.00
2019-05-01T23:15:16.428Z,2.00
2019-05-01T23:17:43.138Z,2.20
2019-05-01T23:20:10.141Z,1.80
2019-05-01T23:22:36.865Z,1.90
2019-05-01T23:25:05.521Z,1.90
2019-05-01T23:27:32.287Z,1.90
2019-05-01T23:29:59.006Z,2.00
2019-05-01T23:32:25.861Z,2.20
2019-05-01T23:34:52.600Z,2.20
2019-05-01T23:37:19.297Z,1.93
2019-05-01T23:39:46.163Z,2.20
2019-05-01T23:42:12.891Z,2.00
2019-05-01T23:44:42.922Z,1.90
2019-05-01T23:47:08.326Z,2.00
2019-05-01T23:49:35.078Z,2.00
2019-05-01T23:52:03.330Z,2.13
2019-05-01T23:54:30.396Z,2.17
2019-05-01T23:56:57.146Z,2.00
2019-05-01T23:59:23.936Z,2.03
